Brocton, New York
Current Conditions -  °F | °C
As of 9:53 PM on Monday 20 Oct 2014 (Local Time) from KDKK Reporting Station
Overcast Overcast  
Wind Chill: 52°   Ceiling: 3100
Heat Index: 52°   Visibility: 10mi
Dew Point: 46°   Wind: 14mph
Humidity: 80%   Direction: 210°SSW
Pressure: 29.82"   Gusts: 22mph
Location:  42.39°N, 79.44°W
Report Text: KDKK 210153Z AUTO 21012G19KT 10SM OVC031 11/08 A2982 RMK AO2 RAE00 SLP101 P0000 T01110078
Loading
Personal Weather Stations






























Interactive Weather Map
Tropical Storm Tracking
New forecast layout! Learn more

10-Day Weather Forecast

Advertisements
Track Severe Weather on mobile